Metchosin Land District, British Columbia

5:06 PM PDT on June 25, 2017 (GMT -0700)
Metchosin-Clapham | | Change Station

Elev 430 ft 48.37 °N, 123.57 °W | Updated 7 seconds ago

Partly Cloudy
Partly Cloudy
84.1 °F
Feels Like 83 °F
N
4.0
Wind Variable Wind from SW
Gusts 9.0 mph

Today
High -- | Low -- °F
--% Chance of Precip.
Yesterday
High -- | Low -- °F
Precip. -- in
Pressure 29.88 in
Visibility 15.0 miles
Clouds Few 12000 ft
Scattered Clouds 16000 ft
Mostly Cloudy 24000 ft
Heat Index 83 °F
Dew Point 53 °F
Humidity 34%
Rainfall 0.00 in
Snow Depth Not available.
5:14 AM 9:19 PM
Waxing Crescent, 5% visible
METAR CYWH 252300Z 22005KT 15SM FEW120 SCT160 BKN240 19/11 A2987 RMK AC1AC2CI4 SLP116 DENSITY ALT 600FT
Pressure 29.88 in
Visibility 15.0 miles
Clouds Few 12000 ft
Scattered Clouds 16000 ft
Mostly Cloudy 24000 ft
Heat Index 83 °F
Dew Point 53 °F
Humidity 34%
Rainfall 0.00 in
Snow Depth Not available.
5:14 AM 9:19 PM
Waxing Crescent, 5% visible
METAR CYWH 252300Z 22005KT 15SM FEW120 SCT160 BKN240 19/11 A2987 RMK AC1AC2CI4 SLP116 DENSITY ALT 600FT

Get Severe Weather Alerts

Thanks for signing up!

Be on the lookout for a verification email in your inbox.

You'll start receiving the daily forecast at 6 AM.

×

10-Day Weather Forecast

Almanac

Astronomy

Jun. 25, 2017 Rise Set
Actual Time
Civil Twilight
Nautical Twilight
Astronomical Twilight
Moon
Length of Visible Light
Length of Day
Tomorrow will be .
, % of the Moon is Illuminated

Today's Extremes

Country Highs Country Lows

Community

WunderPhotos

Category 6

Welcome to Category 6. This is the collective home for Weather Underground's featured writeups by Dr. Jeff Masters (right), Bob Henson (left), Chris Burt, and other regular contributors.

Nearby

Air Quality

  Air Quality AQ Index Pollutant
Not available.

Snow Depth

Station Depth Elevation

Earthquake Activity

City Distance Mag. Time & Date
Minimum magnitude displayed is 2.5.

Coastal Water Temperatures

Place Temperature

Stations

Nearby Weather Stations

Station Location Temp. Windchill Dew Point Humidity Wind Precip. Elev Updated Type
                   

Watches & Warnings

There are currently no watches in effect.